Saint George Island, Florida
Current Conditions -  °F | °C
As of 5:09 PM on Sunday 23 Nov 2014 (Local Time) from KAAF Reporting Station
Light Rain Light Rain  
Wind Chill: 20°   Ceiling: 4500
Heat Index: 20°   Visibility: 3mi
Dew Point: 18°   Wind: 0mph
Humidity: 87%   Direction: NA
Pressure: 29.81"   Gusts: NA
Location:  29.8852°N, 84.8748°W
Report Text: KAAF 232209Z AUTO 00000KT 3SM -RA BR SCT036 BKN045 OVC090 20/18 A2981 RMK AO2 P0012 T02000178 TSNO
Loading
Personal Weather Stations






























Interactive Weather Map New forecast layout! Learn more

10-Day Weather Forecast

Advertisements
Track Severe Weather on mobile